Time;durP1;ratioP1;P1;durP2;ratioP2;P2;SDS_P1;SDS_P2;PMS_P1;PMS_P2;Temp;Humidity;BMP_temperature;BMP_pressure;BME280_temperature;BME280_humidity;BME280_pressure;Samples;Min_cycle;Max_cycle;Signal;HPM_P1;HPM_P2
2022/08/06 00:01:15;;;;;;;2.73;2.37;;;;;;;25.42;42.18;99270.09;6947317;28;20332;-79
2022/08/06 00:04:38;;;;;;;2.47;2.20;;;;;;;25.22;42.01;99278.50;6946890;28;20398;-80
2022/08/06 00:08:00;;;;;;;2.87;2.50;;;;;;;24.74;43.90;99271.94;6946840;28;20237;-79
2022/08/06 00:11:22;;;;;;;2.50;2.30;;;;;;;25.09;42.44;99268.13;6947218;28;20222;-80
2022/08/06 00:14:43;;;;;;;2.77;2.47;;;;;;;25.10;42.01;99269.75;6948052;28;20233;-79
2022/08/06 00:18:05;;;;;;;4.67;2.10;;;;;;;25.76;40.99;99255.09;6921296;28;20212;-79
2022/08/06 00:21:28;;;;;;;2.97;2.20;;;;;;;24.97;41.36;99278.69;6924131;28;20226;-79
2022/08/06 00:24:49;;;;;;;2.80;1.80;;;;;;;25.31;41.19;99261.03;6922368;28;20343;-79
2022/08/06 00:28:11;;;;;;;4.20;2.23;;;;;;;25.55;41.21;99267.44;6927746;28;20211;-79
2022/08/06 00:31:33;;;;;;;4.40;2.33;;;;;;;24.85;41.56;99268.03;6921994;28;20692;-79
2022/08/06 00:34:54;;;;;;;3.70;2.23;;;;;;;25.21;41.53;99250.09;6917764;28;20353;-80
2022/08/06 00:38:17;;;;;;;2.13;2.00;;;;;;;25.25;41.82;99270.50;6917792;28;20284;-80
2022/08/06 00:41:39;;;;;;;4.90;2.27;;;;;;;25.22;42.02;99268.28;6918298;28;20700;-78
2022/08/06 00:45:01;;;;;;;2.60;2.10;;;;;;;25.41;41.42;99269.25;6918487;28;20341;-79
2022/08/06 00:48:22;;;;;;;4.50;3.13;;;;;;;25.37;41.58;99265.41;6917783;28;20208;-79
2022/08/06 00:51:44;;;;;;;2.93;2.50;;;;;;;24.57;43.57;99274.25;6918147;28;20231;-79
2022/08/06 00:55:08;;;;;;;5.07;3.17;;;;;;;25.21;42.73;99271.31;6918362;28;20212;-79
2022/08/06 00:58:29;;;;;;;2.50;2.30;;;;;;;25.44;42.24;99279.72;6917864;28;20297;-79
2022/08/06 01:01:51;;;;;;;2.63;2.30;;;;;;;25.23;42.95;99291.16;6918217;28;20694;-80
2022/08/06 01:05:12;;;;;;;3.60;2.67;;;;;;;25.26;42.62;99293.41;6917880;28;20338;-80
2022/08/06 01:08:34;;;;;;;2.80;2.50;;;;;;;25.39;42.24;99298.25;6917406;28;20251;-79
2022/08/06 01:11:57;;;;;;;4.80;2.47;;;;;;;25.50;41.81;99299.81;6918071;28;20281;-79
2022/08/06 01:15:18;;;;;;;5.67;2.43;;;;;;;24.73;41.68;99299.81;6917620;28;20208;-78
2022/08/06 01:18:48;;;;;;;3.63;2.00;;;;;;;24.61;42.42;99302.09;6917636;28;20236;-79
2022/08/06 01:22:18;;;;;;;3.87;2.07;;;;;;;24.95;41.42;99305.75;6918688;28;20578;-79
2022/08/06 01:26:00;;;;;;;2.77;1.87;;;;;;;24.86;41.48;99299.19;6943181;28;20211;-79
2022/08/06 01:29:26;;;;;;;2.97;1.83;;;;;;;24.67;41.22;99289.91;6944671;28;20256;-80
2022/08/06 01:32:51;;;;;;;2.00;1.80;;;;;;;24.91;40.64;99299.97;6945951;28;20322;-80
2022/08/06 01:36:18;;;;;;;2.30;2.10;;;;;;;24.75;40.52;99270.00;6946062;28;20207;-79
2022/08/06 01:39:41;;;;;;;6.03;2.23;;;;;;;25.19;40.24;99296.44;6950611;28;20687;-79
2022/08/06 01:43:06;;;;;;;2.03;1.83;;;;;;;25.09;39.49;99291.03;6951499;28;20267;-79
2022/08/06 01:46:29;;;;;;;2.57;1.80;;;;;;;24.82;39.84;99268.56;6971479;28;20282;-80
2022/08/06 01:49:54;;;;;;;2.47;1.90;;;;;;;25.30;38.79;99298.06;6952175;28;20210;-80
2022/08/06 01:53:17;;;;;;;2.70;1.90;;;;;;;24.64;40.06;99285.78;6950264;28;20250;-79
2022/08/06 01:56:40;;;;;;;2.57;1.90;;;;;;;24.57;39.80;99303.75;6950919;28;20285;-79
2022/08/06 02:00:02;;;;;;;1.97;1.63;;;;;;;24.72;39.63;99298.16;6923420;28;20320;-79
2022/08/06 02:03:27;;;;;;;2.30;1.77;;;;;;;24.05;40.53;99308.88;6926560;28;20234;-79
2022/08/06 02:06:50;;;;;;;1.67;1.57;;;;;;;24.03;41.13;99302.84;6922604;28;20252;-79
2022/08/06 02:10:12;;;;;;;2.27;1.77;;;;;;;24.28;39.88;99288.97;6931441;28;20195;-79
2022/08/06 02:13:34;;;;;;;2.40;1.70;;;;;;;24.33;39.97;99316.50;6953047;28;20246;-80
2022/08/06 02:16:57;;;;;;;3.33;1.73;;;;;;;24.34;39.68;99331.94;6943566;28;20265;-80
2022/08/06 02:20:24;;;;;;;3.00;1.80;;;;;;;24.25;40.07;99323.41;6921535;28;20226;-79
2022/08/06 02:23:46;;;;;;;2.10;1.90;;;;;;;24.30;39.66;99328.13;6921628;28;20253;-79
2022/08/06 02:27:08;;;;;;;2.27;1.80;;;;;;;24.30;39.66;99315.13;6941946;28;20244;-79
2022/08/06 02:30:32;;;;;;;2.53;1.90;;;;;;;24.38;39.93;99330.28;6951783;28;20231;-79
2022/08/06 02:33:54;;;;;;;1.73;1.60;;;;;;;24.12;40.21;99328.72;6958099;28;20231;-80
2022/08/06 02:37:20;;;;;;;2.20;2.00;;;;;;;23.88;40.71;99319.38;6953443;28;20221;-79
2022/08/06 02:40:44;;;;;;;3.93;1.80;;;;;;;24.15;40.05;99331.75;6949460;28;20234;-79
2022/08/06 02:44:09;;;;;;;2.23;1.83;;;;;;;24.55;39.78;99331.56;6955749;28;20277;-79
2022/08/06 02:47:35;;;;;;;2.03;1.80;;;;;;;23.98;40.43;99328.47;6953920;28;20245;-79
2022/08/06 02:50:58;;;;;;;2.03;1.80;;;;;;;24.02;40.52;99334.25;6954236;28;20274;-79
2022/08/06 02:54:24;;;;;;;2.20;2.00;;;;;;;24.01;40.70;99327.91;6948561;28;20376;-79
2022/08/06 02:57:50;;;;;;;2.20;1.63;;;;;;;24.37;40.31;99334.16;6947425;28;20217;-79
2022/08/06 03:01:18;;;;;;;5.77;1.87;;;;;;;24.16;40.38;99310.50;6946138;28;20311;-79
2022/08/06 03:04:44;;;;;;;3.03;1.77;;;;;;;24.22;40.22;99317.66;6948012;28;20315;-79
2022/08/06 03:08:07;;;;;;;1.70;1.60;;;;;;;24.21;40.58;99304.97;6948506;28;20679;-79
2022/08/06 03:11:33;;;;;;;4.17;1.80;;;;;;;23.91;40.82;99299.56;6948509;28;20218;-78
2022/08/06 03:14:55;;;;;;;2.53;2.00;;;;;;;24.23;40.34;99327.56;6948761;28;20222;-79
2022/08/06 03:18:17;;;;;;;4.97;2.43;;;;;;;24.21;41.00;99324.28;6947711;28;20298;-79
2022/08/06 03:21:41;;;;;;;1.70;1.60;;;;;;;23.72;41.49;99337.81;6948717;28;20775;-79
2022/08/06 03:25:03;;;;;;;3.53;2.10;;;;;;;23.96;41.16;99347.19;6948367;28;20301;-78
2022/08/06 03:28:26;;;;;;;3.03;1.50;;;;;;;24.13;40.57;99336.69;6951154;28;20278;-79
2022/08/06 03:31:48;;;;;;;2.23;2.03;;;;;;;23.80;41.50;99347.47;6949909;28;20223;-80
2022/08/06 03:35:10;;;;;;;4.27;1.77;;;;;;;24.08;40.68;99349.66;6949741;28;20239;-79
2022/08/06 03:38:38;;;;;;;2.83;1.90;;;;;;;23.81;41.86;99344.44;6949064;28;20692;-79
2022/08/06 03:42:00;;;;;;;3.77;1.83;;;;;;;23.96;41.40;99362.91;6923466;28;20555;-80
2022/08/06 03:45:23;;;;;;;4.40;2.00;;;;;;;23.89;41.29;99367.88;6921664;28;20286;-80
2022/08/06 03:48:45;;;;;;;2.63;1.90;;;;;;;23.95;41.31;99366.78;6920925;28;20350;-80
2022/08/06 03:52:08;;;;;;;2.87;1.93;;;;;;;23.90;41.32;99364.81;6921474;28;20322;-80
2022/08/06 03:55:32;;;;;;;1.90;1.77;;;;;;;24.09;41.18;99365.94;6920430;28;20686;-79
2022/08/06 03:58:55;;;;;;;1.93;1.73;;;;;;;23.79;41.74;99365.91;6947263;28;20212;-80
2022/08/06 04:02:19;;;;;;;2.13;1.87;;;;;;;23.63;42.10;99358.78;6947724;28;20233;-79
2022/08/06 04:05:42;;;;;;;2.50;1.77;;;;;;;23.77;41.75;99373.63;6947201;28;20271;-80
2022/08/06 04:09:06;;;;;;;2.13;1.90;;;;;;;23.95;41.27;99361.25;6948868;28;20237;-79
2022/08/06 04:12:28;;;;;;;2.50;1.77;;;;;;;24.05;41.39;99369.50;6948011;28;20304;-80
2022/08/06 04:15:50;;;;;;;6.20;2.00;;;;;;;23.78;41.95;99380.78;6947502;28;20207;-79
2022/08/06 04:19:14;;;;;;;2.53;2.00;;;;;;;23.84;41.66;99376.94;6946529;28;20216;-80
2022/08/06 04:22:35;;;;;;;2.80;1.80;;;;;;;23.84;41.59;99379.69;6946050;28;20234;-80
2022/08/06 04:25:59;;;;;;;2.13;1.93;;;;;;;24.15;41.42;99395.13;6941315;28;20840;-79
2022/08/06 04:29:21;;;;;;;3.53;2.10;;;;;;;23.98;41.44;99394.59;6920472;28;20207;-79
2022/08/06 04:32:44;;;;;;;1.90;1.70;;;;;;;23.97;41.83;99400.38;6944234;28;20307;-80
2022/08/06 04:36:09;;;;;;;1.87;1.77;;;;;;;23.51;42.15;99401.44;6947035;28;20686;-80
2022/08/06 04:39:31;;;;;;;3.77;2.13;;;;;;;23.34;42.59;99398.94;6947185;28;20240;-79
2022/08/06 04:42:53;;;;;;;1.77;1.63;;;;;;;23.47;42.33;99392.06;6947033;28;20269;-79
2022/08/06 04:46:15;;;;;;;3.53;2.07;;;;;;;23.39;42.69;99404.47;6947503;28;20238;-80
2022/08/06 04:49:36;;;;;;;3.77;2.07;;;;;;;23.77;42.23;99408.63;6947341;28;20257;-80
2022/08/06 04:53:07;;;;;;;3.03;1.87;;;;;;;23.97;41.76;99406.72;6944762;28;20260;-79
2022/08/06 04:56:28;;;;;;;3.40;1.93;;;;;;;23.74;42.71;99421.00;6921609;28;20234;-80
2022/08/06 04:59:50;;;;;;;3.90;1.83;;;;;;;22.91;44.33;99420.53;6927604;28;20209;-80
2022/08/06 05:03:12;;;;;;;2.23;2.00;;;;;;;23.69;42.78;99414.66;6949583;28;20239;-79
2022/08/06 05:06:41;;;;;;;2.47;1.83;;;;;;;24.02;41.85;99438.94;6948675;28;20257;-79
2022/08/06 05:10:06;;;;;;;2.07;1.87;;;;;;;23.70;42.45;99413.56;6948472;28;20243;-79
2022/08/06 05:13:31;;;;;;;2.93;2.07;;;;;;;23.45;43.20;99430.91;6953632;28;20232;-80
2022/08/06 05:16:52;;;;;;;4.03;2.10;;;;;;;24.00;42.45;99439.22;6937395;28;20209;-80
2022/08/06 05:20:17;;;;;;;2.97;2.27;;;;;;;24.10;42.03;99430.94;6926483;28;20242;-79
2022/08/06 05:23:42;;;;;;;2.80;2.00;;;;;;;24.10;42.31;99435.63;6929031;28;20297;-80
2022/08/06 05:27:05;;;;;;;4.87;2.13;;;;;;;24.14;42.01;99437.53;6940715;28;20229;-80
2022/08/06 05:30:27;;;;;;;3.07;2.00;;;;;;;23.99;42.47;99445.00;6952961;28;20201;-80
2022/08/06 05:33:48;;;;;;;2.80;1.97;;;;;;;23.98;42.37;99451.59;6953314;28;20225;-80
2022/08/06 05:37:10;;;;;;;2.63;2.17;;;;;;;23.56;43.11;99446.34;6951262;28;20213;-80
2022/08/06 05:40:35;;;;;;;2.43;2.20;;;;;;;22.74;44.77;99433.66;6950579;28;20638;-80
2022/08/06 05:43:59;;;;;;;3.77;2.10;;;;;;;23.17;44.17;99449.81;6952255;28;20235;-80
2022/08/06 05:47:24;;;;;;;3.27;2.03;;;;;;;24.15;42.15;99444.72;6945668;28;20222;-81
2022/08/06 05:50:50;;;;;;;2.87;1.80;;;;;;;23.59;43.64;99456.78;6952907;28;20251;-79
2022/08/06 05:54:19;;;;;;;2.20;1.80;;;;;;;24.02;42.91;99458.22;6944997;28;20259;-79
2022/08/06 05:57:44;;;;;;;3.83;2.27;;;;;;;24.21;41.86;99456.56;6946035;28;20244;-79
2022/08/06 06:01:08;;;;;;;2.60;2.03;;;;;;;23.66;43.04;99460.09;6957774;28;20257;-79
2022/08/06 06:04:29;;;;;;;1.80;1.70;;;;;;;23.76;42.73;99475.78;6951326;28;20223;-79
2022/08/06 06:07:52;;;;;;;3.17;2.30;;;;;;;23.56;43.65;99479.38;6951938;28;20786;-79
2022/08/06 06:11:14;;;;;;;2.40;2.00;;;;;;;23.26;43.95;99479.28;6951545;28;20194;-79
2022/08/06 06:14:38;;;;;;;3.17;2.07;;;;;;;23.34;43.51;99486.19;6942083;28;20598;-79
2022/08/06 06:18:09;;;;;;;2.50;2.23;;;;;;;23.78;42.76;99481.88;6963010;28;20214;-79
2022/08/06 06:21:40;;;;;;;3.27;2.47;;;;;;;24.17;42.14;99483.84;6969497;28;20214;-80
2022/08/06 06:25:04;;;;;;;3.20;2.20;;;;;;;24.56;41.15;99415.13;6973153;28;20199;-84
2022/08/06 06:28:33;;;;;;;2.60;1.90;;;;;;;24.21;42.50;99486.88;6972902;28;20204;-79
2022/08/06 06:32:01;;;;;;;3.10;2.13;;;;;;;24.33;42.17;99484.66;6973521;28;20222;-80
2022/08/06 06:35:35;;;;;;;3.33;2.30;;;;;;;23.88;42.53;99474.47;6973999;28;20202;-81
2022/08/06 06:39:02;;;;;;;2.53;2.00;;;;;;;25.00;41.03;99483.13;6977460;28;20207;-81
2022/08/06 06:42:28;;;;;;;2.43;2.23;;;;;;;24.67;41.85;99492.06;6970085;28;20737;-81
2022/08/06 06:45:56;;;;;;;2.10;1.90;;;;;;;25.43;40.56;99495.41;6970027;28;20549;-81
2022/08/06 06:49:22;;;;;;;6.47;2.33;;;;;;;24.50;41.65;99501.72;6969790;28;20175;-81
2022/08/06 06:52:48;;;;;;;2.57;1.90;;;;;;;24.92;41.02;99500.28;6964491;28;20238;-79
2022/08/06 06:56:10;;;;;;;3.40;1.90;;;;;;;25.32;40.28;99511.16;6953139;28;20204;-80
2022/08/06 06:59:35;;;;;;;2.10;1.90;;;;;;;25.90;39.02;99495.69;6940412;28;20688;-79
2022/08/06 07:02:59;;;;;;;2.77;2.10;;;;;;;25.86;39.83;99503.69;6936096;28;20233;-80
2022/08/06 07:06:21;;;;;;;2.43;1.90;;;;;;;25.21;40.28;99493.00;6970257;28;20216;-80
2022/08/06 07:09:45;;;;;;;3.37;2.03;;;;;;;25.67;39.87;99510.97;6966800;28;20201;-79
2022/08/06 07:13:08;;;;;;;3.17;2.30;;;;;;;26.15;39.02;99506.53;6961442;28;20227;-80
2022/08/06 07:16:31;;;;;;;3.47;2.20;;;;;;;26.84;36.41;99510.56;6971175;28;20210;-81
2022/08/06 07:19:58;;;;;;;2.30;2.10;;;;;;;26.57;37.47;99513.09;6970623;28;20234;-80
2022/08/06 07:23:22;;;;;;;5.40;2.20;;;;;;;25.93;38.96;99508.91;6957994;28;20316;-80
2022/08/06 07:26:46;;;;;;;5.23;2.27;;;;;;;26.13;37.66;99514.28;6960930;28;20209;-80
2022/08/06 07:30:10;;;;;;;3.30;2.27;;;;;;;26.71;37.02;99502.16;6963387;28;20208;-80
2022/08/06 07:33:33;;;;;;;5.03;2.20;;;;;;;25.78;38.03;99511.75;6961252;28;20227;-81
2022/08/06 07:36:56;;;;;;;2.97;2.37;;;;;;;22.97;44.14;99527.56;6958412;28;20207;-80
2022/08/06 07:40:23;;;;;;;4.20;2.10;;;;;;;25.11;41.26;99531.66;6955628;28;20211;-81
2022/08/06 07:43:49;;;;;;;3.43;2.50;;;;;;;24.85;40.41;99501.69;6950159;28;20231;-80
2022/08/06 07:47:16;;;;;;;4.40;2.57;;;;;;;24.76;40.46;99526.25;6971965;28;20196;-80
2022/08/06 07:50:39;;;;;;;2.80;2.00;;;;;;;26.19;39.05;99532.50;6968606;28;20218;-80
2022/08/06 07:54:01;;;;;;;2.97;2.10;;;;;;;25.44;38.69;99525.50;6950502;28;20228;-80
2022/08/06 07:57:24;;;;;;;2.80;1.90;;;;;;;24.54;41.23;99533.97;6950105;28;20286;-79
2022/08/06 08:00:48;;;;;;;2.13;1.93;;;;;;;25.61;40.03;99503.03;6933141;28;20287;-80
2022/08/06 08:07:50;;;;;;;3.03;2.10;;;;;;;25.56;38.72;99536.19;6950015;28;20203;-80
2022/08/06 08:11:14;;;;;;;2.73;2.30;;;;;;;25.21;39.90;99522.53;6946758;28;20687;-79
2022/08/06 08:14:36;;;;;;;3.40;1.90;;;;;;;26.00;39.22;99501.09;6923763;28;20705;-80
2022/08/06 08:17:59;;;;;;;2.57;2.10;;;;;;;26.28;37.98;99508.63;6925904;28;20207;-80
2022/08/06 08:21:22;;;;;;;4.20;2.00;;;;;;;26.65;37.52;99523.50;6927469;28;20247;-80
2022/08/06 08:24:44;;;;;;;2.37;2.17;;;;;;;26.91;36.62;99499.16;6925191;28;20223;-80
2022/08/06 08:28:07;;;;;;;3.53;2.10;;;;;;;26.92;36.73;99490.56;6927305;28;20286;-80
2022/08/06 08:31:29;;;;;;;3.97;2.30;;;;;;;27.01;36.64;99504.59;6932094;28;20206;-81
2022/08/06 08:34:52;;;;;;;3.50;2.00;;;;;;;26.45;36.24;99497.97;6940548;28;20231;-80
2022/08/06 08:38:14;;;;;;;3.27;2.03;;;;;;;26.79;35.43;99502.31;6957510;28;20353;-80
2022/08/06 08:41:40;;;;;;;3.07;2.10;;;;;;;25.19;37.26;99489.66;6954071;28;20273;-80
2022/08/06 08:45:02;;;;;;;5.30;2.30;;;;;;;24.36;39.85;99522.72;6955121;28;20207;-81
2022/08/06 08:48:28;;;;;;;2.67;2.03;;;;;;;25.16;39.29;99481.13;6971743;28;20210;-81
2022/08/06 08:51:51;;;;;;;2.80;2.40;;;;;;;25.34;38.84;99514.50;6961963;28;20620;-80
2022/08/06 08:55:17;;;;;;;2.83;2.10;;;;;;;26.38;37.09;99497.47;6959106;28;20282;-81
2022/08/06 08:58:42;;;;;;;3.33;2.20;;;;;;;26.58;36.44;99500.06;6977192;28;20213;-84
2022/08/06 09:02:07;;;;;;;2.53;2.20;;;;;;;27.04;35.69;99504.81;6948233;28;20295;-80
2022/08/06 09:05:29;;;;;;;3.83;2.00;;;;;;;28.02;33.36;99493.81;6974525;28;20584;-81
2022/08/06 09:08:53;;;;;;;1.70;1.60;;;;;;;29.44;30.92;99497.25;6974765;28;20205;-81
2022/08/06 09:12:15;;;;;;;3.10;2.10;;;;;;;29.81;29.72;99497.81;6969711;28;20219;-81
2022/08/06 09:15:36;;;;;;;2.00;1.90;;;;;;;29.56;30.50;99492.84;6956860;28;20199;-81
2022/08/06 09:18:58;;;;;;;2.90;2.00;;;;;;;28.44;32.14;99516.72;6966542;28;20746;-80
2022/08/06 09:22:20;;;;;;;3.67;2.30;;;;;;;26.81;34.17;99513.94;6969525;28;20317;-80
2022/08/06 09:25:44;;;;;;;3.67;2.30;;;;;;;28.68;31.25;99520.16;6965112;28;20221;-80
2022/08/06 09:29:20;;;;;;;2.93;2.10;;;;;;;27.51;33.86;99515.88;6965684;28;20243;-80
2022/08/06 09:32:43;;;;;;;2.37;1.80;;;;;;;29.63;30.58;99518.25;6945387;28;20224;-81
2022/08/06 09:36:06;;;;;;;3.23;2.00;;;;;;;28.39;31.61;99518.72;6973758;28;20216;-81
2022/08/06 09:39:34;;;;;;;2.80;1.97;;;;;;;29.40;30.21;99515.66;6975846;28;20224;-80
2022/08/06 09:42:57;;;;;;;2.37;2.10;;;;;;;26.45;34.64;99528.38;6975739;28;20236;-83
2022/08/06 09:46:36;;;;;;;3.90;2.67;;;;;;;25.91;34.22;99523.03;6970685;28;20209;-82
2022/08/06 09:49:58;;;;;;;3.10;2.20;;;;;;;26.77;33.85;99507.34;6971871;28;20181;-81
2022/08/06 09:53:21;;;;;;;4.33;2.13;;;;;;;25.29;36.18;99451.00;6972103;28;20239;-80
2022/08/06 09:56:43;;;;;;;2.37;2.17;;;;;;;26.94;33.96;99523.47;6972497;28;20210;-80
2022/08/06 10:00:08;;;;;;;2.17;1.90;;;;;;;28.69;30.93;99513.47;6968817;28;20202;-82
2022/08/06 10:03:39;;;;;;;2.63;2.03;;;;;;;28.16;31.65;99512.16;6941659;28;20231;-79
2022/08/06 10:07:03;;;;;;;2.70;1.90;;;;;;;27.95;32.36;99508.03;6936487;28;20209;-79
2022/08/06 10:10:46;;;;;;;2.97;1.87;;;;;;;27.40;33.17;99517.13;6937858;28;20208;-80
2022/08/06 10:14:22;;;;;;;2.97;2.20;;;;;;;27.76;31.64;99509.97;6968124;28;20305;-80
2022/08/06 10:17:47;;;;;;;2.47;1.83;;;;;;;28.15;31.69;99488.31;6964389;28;20235;-80
2022/08/06 10:21:12;;;;;;;3.40;2.10;;;;;;;28.77;30.09;99504.41;6944061;28;20198;-81
2022/08/06 10:24:38;;;;;;;2.43;1.97;;;;;;;27.87;31.48;99505.97;6963132;28;20478;-79
2022/08/06 10:28:01;;;;;;;2.70;2.40;;;;;;;28.00;30.96;99530.16;6976086;28;20200;-79
2022/08/06 10:31:23;;;;;;;2.43;1.93;;;;;;;28.21;31.85;99519.56;6962904;28;20209;-80
2022/08/06 10:34:49;;;;;;;2.63;2.10;;;;;;;28.53;30.19;99489.88;6964252;28;20236;-82
2022/08/06 10:38:16;;;;;;;4.30;1.90;;;;;;;30.05;27.71;99508.66;6965611;28;20218;-81
2022/08/06 10:41:40;;;;;;;5.50;2.07;;;;;;;27.70;31.52;99518.66;6963913;28;20220;-80
2022/08/06 10:45:03;;;;;;;4.00;1.90;;;;;;;28.46;30.42;99525.53;6968839;28;20208;-82
2022/08/06 10:48:25;;;;;;;2.70;2.10;;;;;;;28.97;29.95;99517.97;6969402;28;20201;-80
2022/08/06 10:51:49;;;;;;;2.40;1.97;;;;;;;28.53;29.45;99483.50;6966534;28;20224;-84
2022/08/06 10:55:11;;;;;;;3.50;2.00;;;;;;;28.37;31.87;99521.00;6970513;28;20209;-81
2022/08/06 10:58:34;;;;;;;2.43;1.97;;;;;;;29.10;29.99;99519.09;6966449;28;20209;-79
2022/08/06 11:02:04;;;;;;;4.47;2.10;;;;;;;29.55;28.78;99512.59;6961755;28;20233;-79
2022/08/06 11:05:28;;;;;;;2.10;1.90;;;;;;;29.86;28.78;99505.22;6959004;28;20191;-80
2022/08/06 11:09:03;;;;;;;5.37;2.10;;;;;;;30.44;27.39;99495.69;6964785;28;20237;-80
2022/08/06 11:12:35;;;;;;;1.70;1.60;;;;;;;30.50;27.97;99488.88;6959024;28;20225;-79
2022/08/06 11:15:57;;;;;;;2.53;2.20;;;;;;;28.35;29.58;99492.69;6949733;28;20200;-79
2022/08/06 11:19:19;;;;;;;2.83;2.27;;;;;;;28.25;29.38;99493.69;6948500;28;20225;-77
2022/08/06 11:22:41;;;;;;;11.70;10.60;;;;;;;29.34;29.08;99489.97;6948706;28;20235;-79
2022/08/06 11:26:04;;;;;;;2.33;2.13;;;;;;;29.85;27.84;99492.44;6948490;28;20366;-79
2022/08/06 11:29:26;;;;;;;2.60;1.80;;;;;;;30.55;26.63;99463.66;6947623;28;20209;-79
2022/08/06 11:32:50;;;;;;;2.23;1.87;;;;;;;30.34;27.27;99468.16;6947750;28;20246;-79
2022/08/06 11:36:25;;;;;;;3.83;1.80;;;;;;;31.04;25.66;99471.81;6948033;28;20281;-79
2022/08/06 11:40:07;;;;;;;2.57;2.00;;;;;;;29.61;27.68;99461.31;6948026;28;20211;-79
2022/08/06 11:43:48;;;;;;;4.10;2.00;;;;;;;28.68;28.76;99475.75;6945029;28;20230;-79
2022/08/06 11:47:12;;;;;;;2.57;1.80;;;;;;;30.24;26.64;99462.84;6942120;28;20219;-79
2022/08/06 11:50:34;;;;;;;1.93;1.77;;;;;;;30.25;27.07;99458.09;6922157;28;20237;-80
2022/08/06 11:54:10;;;;;;;2.77;1.57;;;;;;;30.02;27.62;99462.00;6927671;28;20301;-78
2022/08/06 11:57:32;;;;;;;3.17;1.70;;;;;;;29.29;28.78;99462.28;6924256;28;20851;-79
2022/08/06 12:00:59;;;;;;;2.83;1.90;;;;;;;28.33;30.05;99461.66;6925380;28;20223;-78
2022/08/06 12:04:42;;;;;;;3.10;1.90;;;;;;;29.04;28.33;99462.00;6944491;28;20228;-79
2022/08/06 12:08:19;;;;;;;4.53;1.87;;;;;;;30.39;27.04;99442.13;6948323;28;20221;-78
2022/08/06 12:11:40;;;;;;;4.97;1.90;;;;;;;28.81;28.49;99438.84;6954702;28;20287;-79
2022/08/06 12:15:04;;;;;;;2.50;1.80;;;;;;;29.82;27.31;99448.56;6945859;28;20201;-78
2022/08/06 12:18:27;;;;;;;1.80;1.70;;;;;;;30.55;26.55;99427.47;6950043;28;20210;-79
2022/08/06 12:21:52;;;;;;;2.30;1.80;;;;;;;30.73;26.08;99422.88;6951207;28;20209;-79
2022/08/06 12:25:14;;;;;;;2.87;1.80;;;;;;;30.02;27.56;99432.22;6950862;28;20215;-79
2022/08/06 12:28:36;;;;;;;2.20;1.80;;;;;;;28.69;28.74;99444.06;6950685;28;20224;-79
2022/08/06 12:31:58;;;;;;;2.10;1.90;;;;;;;28.93;28.28;99429.97;6950894;28;20217;-79
2022/08/06 12:35:21;;;;;;;4.67;1.83;;;;;;;30.97;26.38;99426.91;6925588;28;20207;-79
2022/08/06 12:38:54;;;;;;;1.90;1.60;;;;;;;32.35;24.74;99415.50;6948205;28;20200;-79
2022/08/06 12:42:23;;;;;;;2.60;1.93;;;;;;;31.66;25.14;99411.13;6949350;28;20267;-79
2022/08/06 12:45:45;;;;;;;2.00;1.73;;;;;;;32.55;24.15;99407.22;6931461;28;20210;-80
2022/08/06 12:49:07;;;;;;;3.43;1.77;;;;;;;32.69;23.60;99407.00;6927274;28;20211;-81
2022/08/06 12:52:30;;;;;;;1.47;1.37;;;;;;;30.55;26.37;99401.63;6952344;28;20235;-80
2022/08/06 12:55:54;;;;;;;3.47;1.80;;;;;;;29.80;26.88;99395.25;6950075;28;20204;-80
2022/08/06 12:59:16;;;;;;;1.80;1.70;;;;;;;29.07;27.01;99356.66;6923824;28;20203;-85
2022/08/06 13:02:38;;;;;;;2.33;1.73;;;;;;;29.03;27.44;99402.03;6924443;28;20246;-78
2022/08/06 13:06:01;;;;;;;3.17;1.70;;;;;;;30.21;26.10;99395.88;6945341;28;20206;-80
2022/08/06 13:09:31;;;;;;;1.60;1.50;;;;;;;31.28;25.43;99379.44;6953619;28;20213;-79
2022/08/06 13:12:55;;;;;;;4.67;1.87;;;;;;;31.90;24.17;99378.00;6936717;28;20233;-78
2022/08/06 13:16:16;;;;;;;2.87;1.77;;;;;;;32.00;24.36;99360.88;6939364;28;20212;-79
2022/08/06 13:19:52;;;;;;;1.90;1.40;;;;;;;32.21;24.20;99373.81;6948180;28;20220;-77
2022/08/06 13:23:16;;;;;;;2.40;1.83;;;;;;;31.38;23.97;99357.63;6952405;28;20300;-79
2022/08/06 13:26:54;;;;;;;2.83;1.70;;;;;;;30.39;26.23;99370.63;6952387;28;20214;-78
2022/08/06 13:30:18;;;;;;;1.83;1.60;;;;;;;31.30;24.50;99354.88;6949126;28;20211;-79
2022/08/06 13:33:39;;;;;;;2.23;1.50;;;;;;;30.91;24.80;99347.38;6954254;28;20228;-78
2022/08/06 13:37:01;;;;;;;2.33;1.80;;;;;;;29.77;26.27;99343.06;6954691;28;20205;-78
2022/08/06 13:40:38;;;;;;;2.80;1.60;;;;;;;31.14;24.88;99342.53;6957028;28;20202;-79
2022/08/06 13:44:01;;;;;;;1.90;1.53;;;;;;;31.29;24.84;99359.59;6954243;28;20373;-78
2022/08/06 13:47:29;;;;;;;3.97;1.77;;;;;;;31.60;24.17;99300.91;6972206;28;20193;-79
2022/08/06 13:50:50;;;;;;;1.60;1.50;;;;;;;32.46;23.24;99353.41;6964087;28;20221;-78
2022/08/06 13:54:12;;;;;;;1.70;1.53;;;;;;;31.44;24.72;99347.16;6946933;28;20225;-77
2022/08/06 13:57:35;;;;;;;1.80;1.50;;;;;;;30.41;25.64;99342.44;6955866;28;20199;-77
2022/08/06 14:00:58;;;;;;;3.53;1.63;;;;;;;30.88;24.90;99322.97;6955167;28;20216;-78
2022/08/06 14:04:21;;;;;;;4.07;1.80;;;;;;;31.15;25.23;99336.63;6951138;28;20313;-78
2022/08/06 14:07:43;;;;;;;2.53;1.53;;;;;;;31.63;24.38;99322.53;6950725;28;20237;-78
2022/08/06 14:11:05;;;;;;;1.77;1.60;;;;;;;31.78;24.22;99336.81;6951033;28;20208;-78
2022/08/06 14:14:29;;;;;;;3.07;1.70;;;;;;;30.71;25.34;99336.84;6950417;28;20781;-78
2022/08/06 14:17:51;;;;;;;3.57;1.50;;;;;;;31.42;24.50;99329.94;6950464;28;20307;-77
2022/08/06 14:21:13;;;;;;;1.87;1.63;;;;;;;29.24;26.51;99306.81;6948554;28;20210;-78
2022/08/06 14:24:35;;;;;;;3.83;1.90;;;;;;;30.60;26.06;99332.69;6950716;28;20228;-78
2022/08/06 14:27:56;;;;;;;1.67;1.57;;;;;;;31.49;24.81;99313.53;6949967;28;20296;-78
2022/08/06 14:31:18;;;;;;;1.87;1.50;;;;;;;31.04;24.10;99317.75;6951540;28;20247;-78
2022/08/06 14:34:42;;;;;;;1.47;1.37;;;;;;;31.24;24.66;99333.88;6950181;28;20235;-78
2022/08/06 14:38:04;;;;;;;2.10;1.83;;;;;;;31.12;24.65;99334.47;6947316;28;20805;-78
2022/08/06 14:45:07;;;;;;;2.33;1.57;;;;;;;30.04;25.20;99313.13;6941182;28;20221;-79
2022/08/06 14:48:28;;;;;;;1.63;1.50;;;;;;;30.24;26.38;99317.34;6949702;28;20217;-78
2022/08/06 14:51:51;;;;;;;2.00;1.73;;;;;;;30.10;25.24;99319.38;6950571;28;20262;-79
2022/08/06 14:55:14;;;;;;;3.50;1.70;;;;;;;30.65;24.84;99301.13;6950019;28;20219;-78
2022/08/06 14:58:35;;;;;;;2.70;1.53;;;;;;;29.71;26.47;99303.44;6930871;28;20214;-79
2022/08/06 15:01:58;;;;;;;2.37;1.67;;;;;;;30.55;25.69;99305.00;6928274;28;20221;-77
2022/08/06 15:05:20;;;;;;;3.70;1.57;;;;;;;30.80;25.08;99304.28;6943920;28;20252;-78
2022/08/06 15:08:43;;;;;;;2.73;1.77;;;;;;;30.95;24.74;99312.16;6951326;28;20242;-78
2022/08/06 15:12:05;;;;;;;2.20;1.70;;;;;;;31.09;24.69;99310.06;6927506;28;20238;-78
2022/08/06 15:15:27;;;;;;;1.93;1.30;;;;;;;30.95;24.87;99292.66;6932864;28;20242;-79
2022/08/06 15:18:48;;;;;;;2.27;1.40;;;;;;;31.82;23.82;99290.38;6948736;28;20228;-78
2022/08/06 15:22:10;;;;;;;3.13;1.70;;;;;;;31.38;24.30;99298.28;6921932;28;20264;-78
2022/08/06 15:25:33;;;;;;;4.73;1.57;;;;;;;31.43;24.44;99290.56;6921964;28;20233;-78
2022/08/06 15:28:54;;;;;;;4.60;1.70;;;;;;;31.35;24.56;99283.03;6922524;28;20258;-78
2022/08/06 15:32:16;;;;;;;1.77;1.67;;;;;;;29.92;24.93;99265.63;6934722;28;20310;-78
2022/08/06 15:35:38;;;;;;;1.60;1.50;;;;;;;30.11;24.94;99284.88;6947385;28;20217;-78
2022/08/06 15:38:59;;;;;;;2.17;1.50;;;;;;;30.85;25.26;99279.03;6941261;28;20240;-78
2022/08/06 15:42:22;;;;;;;1.70;1.60;;;;;;;31.38;24.23;99287.13;6945693;28;20711;-80
2022/08/06 15:45:44;;;;;;;2.00;1.80;;;;;;;31.74;23.61;99279.25;6941556;28;20228;-78
2022/08/06 15:49:06;;;;;;;1.80;1.60;;;;;;;31.63;23.16;99284.31;6947587;28;20224;-77
2022/08/06 15:52:27;;;;;;;2.00;1.90;;;;;;;31.04;23.99;99287.94;6943576;28;20235;-79
2022/08/06 15:55:49;;;;;;;2.67;1.53;;;;;;;30.54;24.02;99281.09;6947262;28;20295;-78
2022/08/06 15:59:12;;;;;;;1.40;1.30;;;;;;;30.78;24.43;99289.84;6947482;28;20219;-78
2022/08/06 16:02:33;;;;;;;1.40;1.30;;;;;;;31.64;23.81;99280.38;6947999;28;20253;-78
2022/08/06 16:05:55;;;;;;;3.47;1.50;;;;;;;31.19;23.32;99275.53;6932234;28;20230;-77
2022/08/06 16:09:16;;;;;;;2.10;1.40;;;;;;;30.22;24.62;99278.72;6938879;28;20231;-79